sensor_id;sensor_type;location;lat;lon;timestamp;temperature;humidity
13808;DHT22;40769;51.512;5.494;2023-03-13T00:02:11;12.80;99.90
13808;DHT22;40769;51.512;5.494;2023-03-13T00:04:37;12.70;99.90
13808;DHT22;40769;51.512;5.494;2023-03-13T00:07:02;12.70;99.90
13808;DHT22;40769;51.512;5.494;2023-03-13T00:09:29;12.50;99.90
13808;DHT22;40769;51.512;5.494;2023-03-13T00:11:55;12.50;99.90
13808;DHT22;40769;51.512;5.494;2023-03-13T00:14:21;12.40;99.90
13808;DHT22;40769;51.512;5.494;2023-03-13T00:16:46;12.40;99.90
13808;DHT22;40769;51.512;5.494;2023-03-13T00:19:14;12.40;99.90
13808;DHT22;40769;51.512;5.494;2023-03-13T00:21:39;12.30;99.90
13808;DHT22;40769;51.512;5.494;2023-03-13T00:24:06;12.30;99.90
13808;DHT22;40769;51.512;5.494;2023-03-13T00:26:31;12.30;99.90
13808;DHT22;40769;51.512;5.494;2023-03-13T00:28:58;12.40;99.90
13808;DHT22;40769;51.512;5.494;2023-03-13T00:33:52;12.30;99.90
13808;DHT22;40769;51.512;5.494;2023-03-13T00:38:45;12.30;99.90
13808;DHT22;40769;51.512;5.494;2023-03-13T00:41:13;12.30;99.90
13808;DHT22;40769;51.512;5.494;2023-03-13T00:43:40;12.30;99.90
13808;DHT22;40769;51.512;5.494;2023-03-13T00:46:06;12.40;99.90
13808;DHT22;40769;51.512;5.494;2023-03-13T00:48:33;12.30;99.90
13808;DHT22;40769;51.512;5.494;2023-03-13T00:50:59;12.50;99.90
13808;DHT22;40769;51.512;5.494;2023-03-13T00:53:25;12.30;99.90
13808;DHT22;40769;51.512;5.494;2023-03-13T00:58:18;12.30;99.90
13808;DHT22;40769;51.512;5.494;2023-03-13T01:00:44;12.30;99.90
13808;DHT22;40769;51.512;5.494;2023-03-13T01:03:09;12.30;99.90
13808;DHT22;40769;51.512;5.494;2023-03-13T01:05:35;12.40;99.90
13808;DHT22;40769;51.512;5.494;2023-03-13T01:08:01;12.30;99.90
13808;DHT22;40769;51.512;5.494;2023-03-13T01:10:26;12.30;99.90
13808;DHT22;40769;51.512;5.494;2023-03-13T01:12:52;12.30;99.90
13808;DHT22;40769;51.512;5.494;2023-03-13T01:15:17;12.30;99.90
13808;DHT22;40769;51.512;5.494;2023-03-13T01:17:44;12.30;99.90
13808;DHT22;40769;51.512;5.494;2023-03-13T01:20:11;12.30;99.90
13808;DHT22;40769;51.512;5.494;2023-03-13T01:22:37;12.40;99.90
13808;DHT22;40769;51.512;5.494;2023-03-13T01:25:04;12.60;99.90
13808;DHT22;40769;51.512;5.494;2023-03-13T01:27:30;12.40;99.90
13808;DHT22;40769;51.512;5.494;2023-03-13T01:29:55;12.40;99.90
13808;DHT22;40769;51.512;5.494;2023-03-13T01:32:21;12.50;99.90
13808;DHT22;40769;51.512;5.494;2023-03-13T01:34:47;12.50;99.90
13808;DHT22;40769;51.512;5.494;2023-03-13T01:37:13;12.60;99.90
13808;DHT22;40769;51.512;5.494;2023-03-13T01:39:38;12.60;99.90
13808;DHT22;40769;51.512;5.494;2023-03-13T01:42:04;12.60;99.90
13808;DHT22;40769;51.512;5.494;2023-03-13T01:44:49;12.60;99.90
13808;DHT22;40769;51.512;5.494;2023-03-13T01:47:15;12.60;99.90
13808;DHT22;40769;51.512;5.494;2023-03-13T01:49:41;12.60;99.90
13808;DHT22;40769;51.512;5.494;2023-03-13T01:52:14;12.70;99.90
13808;DHT22;40769;51.512;5.494;2023-03-13T01:54:45;12.70;99.90
13808;DHT22;40769;51.512;5.494;2023-03-13T01:57:17;12.70;99.90
13808;DHT22;40769;51.512;5.494;2023-03-13T01:59:58;12.70;99.90
13808;DHT22;40769;51.512;5.494;2023-03-13T02:02:24;12.70;99.90
13808;DHT22;40769;51.512;5.494;2023-03-13T02:04:56;12.70;99.90
13808;DHT22;40769;51.512;5.494;2023-03-13T02:07:38;12.80;99.90
13808;DHT22;40769;51.512;5.494;2023-03-13T02:10:06;12.80;99.90
13808;DHT22;40769;51.512;5.494;2023-03-13T02:12:35;12.90;99.90
13808;DHT22;40769;51.512;5.494;2023-03-13T02:15:16;12.90;99.90
13808;DHT22;40769;51.512;5.494;2023-03-13T02:17:44;13.00;99.90
13808;DHT22;40769;51.512;5.494;2023-03-13T02:20:11;13.00;99.90
13808;DHT22;40769;51.512;5.494;2023-03-13T02:28:10;13.30;99.90
13808;DHT22;40769;51.512;5.494;2023-03-13T02:30:37;13.20;99.90
13808;DHT22;40769;51.512;5.494;2023-03-13T02:33:04;13.30;99.90
13808;DHT22;40769;51.512;5.494;2023-03-13T02:35:30;13.30;99.90
13808;DHT22;40769;51.512;5.494;2023-03-13T02:38:04;13.30;99.90
13808;DHT22;40769;51.512;5.494;2023-03-13T02:40:37;13.40;99.90
13808;DHT22;40769;51.512;5.494;2023-03-13T02:43:08;13.40;99.90
13808;DHT22;40769;51.512;5.494;2023-03-13T02:45:35;13.40;99.90
13808;DHT22;40769;51.512;5.494;2023-03-13T02:48:01;13.30;99.90
13808;DHT22;40769;51.512;5.494;2023-03-13T02:50:27;13.40;99.90
13808;DHT22;40769;51.512;5.494;2023-03-13T02:52:55;13.10;99.90
13808;DHT22;40769;51.512;5.494;2023-03-13T02:55:33;13.50;99.90
13808;DHT22;40769;51.512;5.494;2023-03-13T02:57:59;13.60;99.90
13808;DHT22;40769;51.512;5.494;2023-03-13T03:00:25;13.60;99.90
13808;DHT22;40769;51.512;5.494;2023-03-13T03:02:52;13.60;99.90
13808;DHT22;40769;51.512;5.494;2023-03-13T03:05:19;13.70;99.90
13808;DHT22;40769;51.512;5.494;2023-03-13T03:07:44;13.70;99.90
13808;DHT22;40769;51.512;5.494;2023-03-13T03:10:10;13.70;99.90
13808;DHT22;40769;51.512;5.494;2023-03-13T03:12:36;13.80;99.90
13808;DHT22;40769;51.512;5.494;2023-03-13T03:15:02;13.80;99.90
13808;DHT22;40769;51.512;5.494;2023-03-13T03:17:29;13.80;99.90
13808;DHT22;40769;51.512;5.494;2023-03-13T03:19:55;13.90;99.90
13808;DHT22;40769;51.512;5.494;2023-03-13T03:22:21;13.90;99.90
13808;DHT22;40769;51.512;5.494;2023-03-13T03:24:49;13.90;99.90
13808;DHT22;40769;51.512;5.494;2023-03-13T03:27:15;13.90;99.90
13808;DHT22;40769;51.512;5.494;2023-03-13T03:29:41;13.90;99.90
13808;DHT22;40769;51.512;5.494;2023-03-13T03:32:06;14.00;99.90
13808;DHT22;40769;51.512;5.494;2023-03-13T03:34:32;14.00;99.90
13808;DHT22;40769;51.512;5.494;2023-03-13T03:36:58;14.00;99.90
13808;DHT22;40769;51.512;5.494;2023-03-13T03:39:23;14.10;99.90
13808;DHT22;40769;51.512;5.494;2023-03-13T03:41:49;14.10;99.90
13808;DHT22;40769;51.512;5.494;2023-03-13T03:44:15;14.30;99.90
13808;DHT22;40769;51.512;5.494;2023-03-13T03:46:40;14.10;99.90
13808;DHT22;40769;51.512;5.494;2023-03-13T03:49:13;14.20;99.90
13808;DHT22;40769;51.512;5.494;2023-03-13T03:51:40;14.10;99.90
13808;DHT22;40769;51.512;5.494;2023-03-13T03:54:09;14.20;99.90
13808;DHT22;40769;51.512;5.494;2023-03-13T03:56:35;14.20;99.90
13808;DHT22;40769;51.512;5.494;2023-03-13T03:59:00;14.20;99.90
13808;DHT22;40769;51.512;5.494;2023-03-13T04:01:26;14.30;99.90
13808;DHT22;40769;51.512;5.494;2023-03-13T04:03:52;14.30;99.90
13808;DHT22;40769;51.512;5.494;2023-03-13T04:06:17;14.30;99.90
13808;DHT22;40769;51.512;5.494;2023-03-13T04:08:43;14.30;99.90
13808;DHT22;40769;51.512;5.494;2023-03-13T04:11:09;14.40;99.90
13808;DHT22;40769;51.512;5.494;2023-03-13T04:13:34;14.40;99.90
13808;DHT22;40769;51.512;5.494;2023-03-13T04:16:06;14.50;99.90
13808;DHT22;40769;51.512;5.494;2023-03-13T04:18:32;14.40;99.90
13808;DHT22;40769;51.512;5.494;2023-03-13T04:21:02;14.40;99.90
13808;DHT22;40769;51.512;5.494;2023-03-13T04:23:29;14.50;99.90
13808;DHT22;40769;51.512;5.494;2023-03-13T04:25:54;14.50;99.90
13808;DHT22;40769;51.512;5.494;2023-03-13T04:28:20;14.60;99.90
13808;DHT22;40769;51.512;5.494;2023-03-13T04:30:46;14.60;99.90
13808;DHT22;40769;51.512;5.494;2023-03-13T04:33:11;14.60;99.90
13808;DHT22;40769;51.512;5.494;2023-03-13T04:35:37;14.80;99.90
13808;DHT22;40769;51.512;5.494;2023-03-13T04:38:02;14.70;99.90
13808;DHT22;40769;51.512;5.494;2023-03-13T04:40:28;14.80;99.90
13808;DHT22;40769;51.512;5.494;2023-03-13T04:42:53;14.80;99.90
13808;DHT22;40769;51.512;5.494;2023-03-13T04:45:19;14.90;99.90
13808;DHT22;40769;51.512;5.494;2023-03-13T04:47:45;14.90;99.90
13808;DHT22;40769;51.512;5.494;2023-03-13T04:50:11;14.90;99.90
13808;DHT22;40769;51.512;5.494;2023-03-13T04:52:37;14.90;99.90
13808;DHT22;40769;51.512;5.494;2023-03-13T04:55:03;14.90;99.90
13808;DHT22;40769;51.512;5.494;2023-03-13T04:57:29;15.00;99.90
13808;DHT22;40769;51.512;5.494;2023-03-13T04:59:55;15.00;99.90
13808;DHT22;40769;51.512;5.494;2023-03-13T05:02:20;15.10;99.90
13808;DHT22;40769;51.512;5.494;2023-03-13T05:04:46;15.00;99.90
13808;DHT22;40769;51.512;5.494;2023-03-13T05:07:11;15.10;99.90
13808;DHT22;40769;51.512;5.494;2023-03-13T05:09:37;15.10;99.90
13808;DHT22;40769;51.512;5.494;2023-03-13T05:12:03;15.10;99.90
13808;DHT22;40769;51.512;5.494;2023-03-13T05:14:28;15.20;99.90
13808;DHT22;40769;51.512;5.494;2023-03-13T05:16:54;15.20;99.90
13808;DHT22;40769;51.512;5.494;2023-03-13T05:19:20;15.20;99.90
13808;DHT22;40769;51.512;5.494;2023-03-13T05:21:45;15.30;99.90
13808;DHT22;40769;51.512;5.494;2023-03-13T05:24:11;15.30;99.90
13808;DHT22;40769;51.512;5.494;2023-03-13T05:26:37;15.30;99.90
13808;DHT22;40769;51.512;5.494;2023-03-13T05:29:02;15.50;99.90
13808;DHT22;40769;51.512;5.494;2023-03-13T05:31:28;15.40;99.90
13808;DHT22;40769;51.512;5.494;2023-03-13T05:33:54;15.40;99.90
13808;DHT22;40769;51.512;5.494;2023-03-13T05:36:19;15.40;99.90
13808;DHT22;40769;51.512;5.494;2023-03-13T05:38:48;15.40;99.90
13808;DHT22;40769;51.512;5.494;2023-03-13T05:41:13;15.40;99.90
13808;DHT22;40769;51.512;5.494;2023-03-13T05:43:39;15.40;99.90
13808;DHT22;40769;51.512;5.494;2023-03-13T05:46:04;15.50;99.90
13808;DHT22;40769;51.512;5.494;2023-03-13T05:48:30;15.50;99.90
13808;DHT22;40769;51.512;5.494;2023-03-13T05:50:56;15.50;99.90
13808;DHT22;40769;51.512;5.494;2023-03-13T05:53:21;15.60;99.90
13808;DHT22;40769;51.512;5.494;2023-03-13T05:55:47;15.60;99.90
13808;DHT22;40769;51.512;5.494;2023-03-13T05:58:12;15.60;99.90
13808;DHT22;40769;51.512;5.494;2023-03-13T06:00:38;15.70;99.90
13808;DHT22;40769;51.512;5.494;2023-03-13T06:03:03;15.70;99.90
13808;DHT22;40769;51.512;5.494;2023-03-13T06:05:29;15.70;99.90
13808;DHT22;40769;51.512;5.494;2023-03-13T06:07:55;15.70;99.90
13808;DHT22;40769;51.512;5.494;2023-03-13T06:10:20;15.70;99.90
13808;DHT22;40769;51.512;5.494;2023-03-13T06:12:53;15.70;99.90
13808;DHT22;40769;51.512;5.494;2023-03-13T06:15:19;15.80;99.90
13808;DHT22;40769;51.512;5.494;2023-03-13T06:17:44;15.80;99.90
13808;DHT22;40769;51.512;5.494;2023-03-13T06:20:11;15.80;99.90
13808;DHT22;40769;51.512;5.494;2023-03-13T06:22:36;15.80;99.90
13808;DHT22;40769;51.512;5.494;2023-03-13T06:25:02;15.80;99.90
13808;DHT22;40769;51.512;5.494;2023-03-13T06:27:28;15.80;99.90
13808;DHT22;40769;51.512;5.494;2023-03-13T06:29:54;15.80;99.90
13808;DHT22;40769;51.512;5.494;2023-03-13T06:32:19;15.80;99.90
13808;DHT22;40769;51.512;5.494;2023-03-13T06:34:45;15.80;99.90
13808;DHT22;40769;51.512;5.494;2023-03-13T06:37:11;15.80;99.90
13808;DHT22;40769;51.512;5.494;2023-03-13T06:39:36;15.90;99.90
13808;DHT22;40769;51.512;5.494;2023-03-13T06:42:02;15.90;99.90
13808;DHT22;40769;51.512;5.494;2023-03-13T06:44:27;15.80;99.90
13808;DHT22;40769;51.512;5.494;2023-03-13T06:46:53;15.90;99.90
13808;DHT22;40769;51.512;5.494;2023-03-13T06:49:19;15.80;99.90
13808;DHT22;40769;51.512;5.494;2023-03-13T06:51:44;15.80;99.90
13808;DHT22;40769;51.512;5.494;2023-03-13T06:54:10;15.90;99.90
13808;DHT22;40769;51.512;5.494;2023-03-13T06:56:36;15.90;99.90
13808;DHT22;40769;51.512;5.494;2023-03-13T06:59:01;16.00;99.90
13808;DHT22;40769;51.512;5.494;2023-03-13T07:01:28;16.00;99.90
13808;DHT22;40769;51.512;5.494;2023-03-13T07:03:54;16.00;99.90
13808;DHT22;40769;51.512;5.494;2023-03-13T07:06:19;16.10;99.90
13808;DHT22;40769;51.512;5.494;2023-03-13T07:08:45;16.10;99.90
13808;DHT22;40769;51.512;5.494;2023-03-13T07:11:12;16.10;99.90
13808;DHT22;40769;51.512;5.494;2023-03-13T07:13:38;16.10;99.90
13808;DHT22;40769;51.512;5.494;2023-03-13T07:16:09;16.10;99.90
13808;DHT22;40769;51.512;5.494;2023-03-13T07:18:35;16.20;99.90
13808;DHT22;40769;51.512;5.494;2023-03-13T07:21:02;16.20;99.90
13808;DHT22;40769;51.512;5.494;2023-03-13T07:23:29;16.20;99.90
13808;DHT22;40769;51.512;5.494;2023-03-13T07:25:58;16.30;99.90
13808;DHT22;40769;51.512;5.494;2023-03-13T07:28:25;16.30;99.90
13808;DHT22;40769;51.512;5.494;2023-03-13T07:30:51;16.30;99.90
13808;DHT22;40769;51.512;5.494;2023-03-13T07:33:17;16.50;99.90
13808;DHT22;40769;51.512;5.494;2023-03-13T07:35:51;16.40;99.90
13808;DHT22;40769;51.512;5.494;2023-03-13T07:38:18;16.40;99.90
13808;DHT22;40769;51.512;5.494;2023-03-13T07:40:52;16.40;99.90
13808;DHT22;40769;51.512;5.494;2023-03-13T07:43:18;16.40;99.90
13808;DHT22;40769;51.512;5.494;2023-03-13T07:45:58;16.40;99.90
13808;DHT22;40769;51.512;5.494;2023-03-13T07:48:31;16.50;99.90
13808;DHT22;40769;51.512;5.494;2023-03-13T07:50:57;16.50;99.90
13808;DHT22;40769;51.512;5.494;2023-03-13T07:53:24;16.60;99.90
13808;DHT22;40769;51.512;5.494;2023-03-13T07:55:58;16.60;99.90
13808;DHT22;40769;51.512;5.494;2023-03-13T07:58:29;16.60;99.90
13808;DHT22;40769;51.512;5.494;2023-03-13T08:00:55;16.60;99.90
13808;DHT22;40769;51.512;5.494;2023-03-13T08:03:22;16.60;99.90
13808;DHT22;40769;51.512;5.494;2023-03-13T08:05:57;16.60;99.90
13808;DHT22;40769;51.512;5.494;2023-03-13T08:08:22;16.60;99.90
13808;DHT22;40769;51.512;5.494;2023-03-13T08:10:48;16.70;99.90
13808;DHT22;40769;51.512;5.494;2023-03-13T08:13:14;16.70;99.90
13808;DHT22;40769;51.512;5.494;2023-03-13T08:15:39;16.80;99.90
13808;DHT22;40769;51.512;5.494;2023-03-13T08:18:05;16.80;99.90
13808;DHT22;40769;51.512;5.494;2023-03-13T08:20:30;16.80;99.90
13808;DHT22;40769;51.512;5.494;2023-03-13T08:22:56;16.80;99.90
13808;DHT22;40769;51.512;5.494;2023-03-13T08:25:22;16.90;99.90
13808;DHT22;40769;51.512;5.494;2023-03-13T08:27:47;16.90;99.90
13808;DHT22;40769;51.512;5.494;2023-03-13T08:30:13;16.80;99.90
13808;DHT22;40769;51.512;5.494;2023-03-13T08:32:39;16.90;99.90
13808;DHT22;40769;51.512;5.494;2023-03-13T08:35:05;16.90;99.90
13808;DHT22;40769;51.512;5.494;2023-03-13T08:37:31;16.90;99.90
13808;DHT22;40769;51.512;5.494;2023-03-13T08:39:57;17.00;99.90
13808;DHT22;40769;51.512;5.494;2023-03-13T08:42:22;17.10;99.90
13808;DHT22;40769;51.512;5.494;2023-03-13T08:44:48;17.20;99.90
13808;DHT22;40769;51.512;5.494;2023-03-13T08:47:14;17.20;99.90
13808;DHT22;40769;51.512;5.494;2023-03-13T08:49:40;17.30;99.90
13808;DHT22;40769;51.512;5.494;2023-03-13T08:52:06;17.40;99.90
13808;DHT22;40769;51.512;5.494;2023-03-13T08:54:32;17.50;99.90
13808;DHT22;40769;51.512;5.494;2023-03-13T08:56:58;17.60;99.90
13808;DHT22;40769;51.512;5.494;2023-03-13T08:59:24;17.60;99.90
13808;DHT22;40769;51.512;5.494;2023-03-13T09:01:50;17.70;99.90
13808;DHT22;40769;51.512;5.494;2023-03-13T09:04:16;17.70;99.90
13808;DHT22;40769;51.512;5.494;2023-03-13T09:06:42;17.70;99.90
13808;DHT22;40769;51.512;5.494;2023-03-13T09:09:08;17.80;99.90
13808;DHT22;40769;51.512;5.494;2023-03-13T09:11:36;17.80;99.90
13808;DHT22;40769;51.512;5.494;2023-03-13T09:14:02;17.80;99.90
13808;DHT22;40769;51.512;5.494;2023-03-13T09:16:29;17.90;99.90
13808;DHT22;40769;51.512;5.494;2023-03-13T09:18:56;17.90;99.90
13808;DHT22;40769;51.512;5.494;2023-03-13T09:21:24;17.90;99.90
13808;DHT22;40769;51.512;5.494;2023-03-13T09:23:50;17.80;99.90
13808;DHT22;40769;51.512;5.494;2023-03-13T09:26:17;18.00;99.90
13808;DHT22;40769;51.512;5.494;2023-03-13T09:28:44;18.00;99.90
13808;DHT22;40769;51.512;5.494;2023-03-13T09:31:11;18.10;99.90
13808;DHT22;40769;51.512;5.494;2023-03-13T09:33:39;18.20;99.90
13808;DHT22;40769;51.512;5.494;2023-03-13T09:36:06;18.30;99.90
13808;DHT22;40769;51.512;5.494;2023-03-13T09:38:32;18.40;99.90
13808;DHT22;40769;51.512;5.494;2023-03-13T09:46:38;18.90;99.90
13808;DHT22;40769;51.512;5.494;2023-03-13T09:49:22;19.00;99.90
13808;DHT22;40769;51.512;5.494;2023-03-13T09:51:55;19.20;99.90
13808;DHT22;40769;51.512;5.494;2023-03-13T09:54:26;19.30;99.90
13808;DHT22;40769;51.512;5.494;2023-03-13T09:56:59;19.50;99.90
13808;DHT22;40769;51.512;5.494;2023-03-13T09:59:52;19.60;99.90
13808;DHT22;40769;51.512;5.494;2023-03-13T10:02:34;19.70;99.90
13808;DHT22;40769;51.512;5.494;2023-03-13T10:07:25;19.80;99.90
13808;DHT22;40769;51.512;5.494;2023-03-13T10:09:51;19.80;99.90
13808;DHT22;40769;51.512;5.494;2023-03-13T10:12:20;19.80;99.90
13808;DHT22;40769;51.512;5.494;2023-03-13T10:15:02;19.80;99.90
13808;DHT22;40769;51.512;5.494;2023-03-13T10:17:39;19.90;99.90
13808;DHT22;40769;51.512;5.494;2023-03-13T10:22:45;20.00;99.90
13808;DHT22;40769;51.512;5.494;2023-03-13T10:25:33;20.10;99.90
13808;DHT22;40769;51.512;5.494;2023-03-13T10:28:00;20.10;99.90
13808;DHT22;40769;51.512;5.494;2023-03-13T10:30:28;20.20;99.90
13808;DHT22;40769;51.512;5.494;2023-03-13T10:33:16;20.10;99.90
13808;DHT22;40769;51.512;5.494;2023-03-13T10:35:43;20.10;99.90
13808;DHT22;40769;51.512;5.494;2023-03-13T10:38:11;20.10;99.90
13808;DHT22;40769;51.512;5.494;2023-03-13T10:40:38;20.10;99.90
13808;DHT22;40769;51.512;5.494;2023-03-13T10:43:24;20.20;99.90
13808;DHT22;40769;51.512;5.494;2023-03-13T10:45:51;20.20;99.90
13808;DHT22;40769;51.512;5.494;2023-03-13T10:50:52;20.20;99.90
13808;DHT22;40769;51.512;5.494;2023-03-13T10:55:56;20.30;99.90
13808;DHT22;40769;51.512;5.494;2023-03-13T10:58:32;20.40;99.90
13808;DHT22;40769;51.512;5.494;2023-03-13T11:01:26;20.40;99.90
13808;DHT22;40769;51.512;5.494;2023-03-13T11:03:54;20.40;99.90
13808;DHT22;40769;51.512;5.494;2023-03-13T11:06:32;20.50;99.90
13808;DHT22;40769;51.512;5.494;2023-03-13T11:11:27;20.60;99.90
13808;DHT22;40769;51.512;5.494;2023-03-13T11:14:06;20.60;99.90
13808;DHT22;40769;51.512;5.494;2023-03-13T11:16:37;20.70;99.90
13808;DHT22;40769;51.512;5.494;2023-03-13T11:19:15;20.70;99.90
13808;DHT22;40769;51.512;5.494;2023-03-13T11:24:43;20.70;99.90
13808;DHT22;40769;51.512;5.494;2023-03-13T11:30:44;20.70;99.90
13808;DHT22;40769;51.512;5.494;2023-03-13T11:33:35;20.70;99.90
13808;DHT22;40769;51.512;5.494;2023-03-13T11:36:17;20.70;99.90
13808;DHT22;40769;51.512;5.494;2023-03-13T11:38:48;20.60;99.90
13808;DHT22;40769;51.512;5.494;2023-03-13T11:41:39;20.70;99.90
13808;DHT22;40769;51.512;5.494;2023-03-13T11:44:30;20.60;99.90
13808;DHT22;40769;51.512;5.494;2023-03-13T12:01:48;21.10;99.90
13808;DHT22;40769;51.512;5.494;2023-03-13T12:04:33;21.20;99.90
13808;DHT22;40769;51.512;5.494;2023-03-13T12:10:09;21.20;99.90
13808;DHT22;40769;51.512;5.494;2023-03-13T12:12:45;21.30;99.90
13808;DHT22;40769;51.512;5.494;2023-03-13T12:15:35;21.20;99.90
13808;DHT22;40769;51.512;5.494;2023-03-13T12:20:59;21.20;99.90
13808;DHT22;40769;51.512;5.494;2023-03-13T12:26:20;21.00;99.90
13808;DHT22;40769;51.512;5.494;2023-03-13T12:37:27;20.80;99.90
13808;DHT22;40769;51.512;5.494;2023-03-13T12:40:02;20.70;99.90
13808;DHT22;40769;51.512;5.494;2023-03-13T12:42:48;20.70;99.90
13808;DHT22;40769;51.512;5.494;2023-03-13T12:45:20;20.70;99.90
13808;DHT22;40769;51.512;5.494;2023-03-13T12:50:53;20.80;99.90
13808;DHT22;40769;51.512;5.494;2023-03-13T12:56:52;21.00;99.90
13808;DHT22;40769;51.512;5.494;2023-03-13T12:59:40;21.00;99.90
13808;DHT22;40769;51.512;5.494;2023-03-13T13:02:21;21.00;99.90
13808;DHT22;40769;51.512;5.494;2023-03-13T13:04:49;21.20;99.90
13808;DHT22;40769;51.512;5.494;2023-03-13T13:07:24;21.20;99.90
13808;DHT22;40769;51.512;5.494;2023-03-13T13:10:23;21.30;99.90
13808;DHT22;40769;51.512;5.494;2023-03-13T13:15:57;21.50;99.90
13808;DHT22;40769;51.512;5.494;2023-03-13T13:18:27;21.50;99.90
13808;DHT22;40769;51.512;5.494;2023-03-13T13:23:39;21.60;99.90
13808;DHT22;40769;51.512;5.494;2023-03-13T13:28:56;21.60;99.90
13808;DHT22;40769;51.512;5.494;2023-03-13T13:39:51;21.30;99.90
13808;DHT22;40769;51.512;5.494;2023-03-13T13:47:41;21.20;99.90
13808;DHT22;40769;51.512;5.494;2023-03-13T13:50:22;21.10;99.90
13808;DHT22;40769;51.512;5.494;2023-03-13T13:52:49;21.10;99.90
13808;DHT22;40769;51.512;5.494;2023-03-13T13:58:13;21.10;99.90
13808;DHT22;40769;51.512;5.494;2023-03-13T14:03:19;21.10;99.90
13808;DHT22;40769;51.512;5.494;2023-03-13T14:05:47;21.10;99.90
13808;DHT22;40769;51.512;5.494;2023-03-13T14:08:30;21.10;99.90
13808;DHT22;40769;51.512;5.494;2023-03-13T14:11:21;21.10;99.90
13808;DHT22;40769;51.512;5.494;2023-03-13T14:14:12;21.20;99.90
13808;DHT22;40769;51.512;5.494;2023-03-13T14:16:38;21.30;99.90
13808;DHT22;40769;51.512;5.494;2023-03-13T14:19:21;21.40;99.90
13808;DHT22;40769;51.512;5.494;2023-03-13T14:21:48;21.60;99.90
13808;DHT22;40769;51.512;5.494;2023-03-13T14:24:14;21.70;99.90
13808;DHT22;40769;51.512;5.494;2023-03-13T14:26:44;21.80;99.90
13808;DHT22;40769;51.512;5.494;2023-03-13T14:29:17;22.00;99.90
13808;DHT22;40769;51.512;5.494;2023-03-13T14:31:53;22.10;99.90
13808;DHT22;40769;51.512;5.494;2023-03-13T14:34:19;22.30;99.90
13808;DHT22;40769;51.512;5.494;2023-03-13T14:36:53;22.40;99.90
13808;DHT22;40769;51.512;5.494;2023-03-13T14:42:11;22.70;99.90
13808;DHT22;40769;51.512;5.494;2023-03-13T14:44:38;22.70;99.90
13808;DHT22;40769;51.512;5.494;2023-03-13T14:47:20;22.80;99.90
13808;DHT22;40769;51.512;5.494;2023-03-13T14:49:47;22.80;99.90
13808;DHT22;40769;51.512;5.494;2023-03-13T14:52:19;22.90;99.90
13808;DHT22;40769;51.512;5.494;2023-03-13T14:54:53;22.90;99.90
13808;DHT22;40769;51.512;5.494;2023-03-13T14:57:21;22.90;99.90
13808;DHT22;40769;51.512;5.494;2023-03-13T14:59:49;22.90;99.90
13808;DHT22;40769;51.512;5.494;2023-03-13T15:02:25;22.90;99.90
13808;DHT22;40769;51.512;5.494;2023-03-13T15:07:35;22.80;99.90
13808;DHT22;40769;51.512;5.494;2023-03-13T15:10:16;22.80;99.90
13808;DHT22;40769;51.512;5.494;2023-03-13T15:12:43;22.70;99.90
13808;DHT22;40769;51.512;5.494;2023-03-13T15:15:09;22.70;99.90
13808;DHT22;40769;51.512;5.494;2023-03-13T15:17:35;22.60;99.90
13808;DHT22;40769;51.512;5.494;2023-03-13T15:20:02;22.60;99.90
13808;DHT22;40769;51.512;5.494;2023-03-13T15:22:35;22.60;99.90
13808;DHT22;40769;51.512;5.494;2023-03-13T15:25:03;22.60;99.90
13808;DHT22;40769;51.512;5.494;2023-03-13T15:27:28;22.70;99.90
13808;DHT22;40769;51.512;5.494;2023-03-13T15:29:54;22.70;99.90
13808;DHT22;40769;51.512;5.494;2023-03-13T15:32:28;22.80;99.90
13808;DHT22;40769;51.512;5.494;2023-03-13T15:34:56;22.80;99.90
13808;DHT22;40769;51.512;5.494;2023-03-13T15:37:27;22.80;99.90
13808;DHT22;40769;51.512;5.494;2023-03-13T15:39:53;22.80;99.90
13808;DHT22;40769;51.512;5.494;2023-03-13T15:42:19;22.80;99.90
13808;DHT22;40769;51.512;5.494;2023-03-13T15:44:45;22.90;99.90
13808;DHT22;40769;51.512;5.494;2023-03-13T15:47:17;23.50;99.90
13808;DHT22;40769;51.512;5.494;2023-03-13T15:49:43;23.00;99.90
13808;DHT22;40769;51.512;5.494;2023-03-13T15:52:18;23.10;99.90
13808;DHT22;40769;51.512;5.494;2023-03-13T15:54:44;23.10;99.90
13808;DHT22;40769;51.512;5.494;2023-03-13T15:57:26;23.20;99.90
13808;DHT22;40769;51.512;5.494;2023-03-13T15:59:52;23.30;99.90
13808;DHT22;40769;51.512;5.494;2023-03-13T16:02:20;23.30;99.90
13808;DHT22;40769;51.512;5.494;2023-03-13T16:04:47;23.30;99.90
13808;DHT22;40769;51.512;5.494;2023-03-13T16:07:15;23.80;99.90
13808;DHT22;40769;51.512;5.494;2023-03-13T16:09:42;23.10;99.90
13808;DHT22;40769;51.512;5.494;2023-03-13T16:12:09;23.00;99.90
13808;DHT22;40769;51.512;5.494;2023-03-13T16:14:36;23.00;99.90
13808;DHT22;40769;51.512;5.494;2023-03-13T16:17:03;22.80;99.90
13808;DHT22;40769;51.512;5.494;2023-03-13T16:19:35;22.70;99.90
13808;DHT22;40769;51.512;5.494;2023-03-13T16:22:00;22.50;99.90
13808;DHT22;40769;51.512;5.494;2023-03-13T16:24:26;22.40;99.90
13808;DHT22;40769;51.512;5.494;2023-03-13T16:26:52;22.20;99.90
13808;DHT22;40769;51.512;5.494;2023-03-13T16:29:18;22.00;99.90
13808;DHT22;40769;51.512;5.494;2023-03-13T16:31:44;21.90;99.90
13808;DHT22;40769;51.512;5.494;2023-03-13T16:34:10;21.90;99.90
13808;DHT22;40769;51.512;5.494;2023-03-13T16:36:35;21.80;99.90
13808;DHT22;40769;51.512;5.494;2023-03-13T16:39:04;21.70;99.90
13808;DHT22;40769;51.512;5.494;2023-03-13T16:41:33;21.50;99.90
13808;DHT22;40769;51.512;5.494;2023-03-13T16:43:59;21.40;99.90
13808;DHT22;40769;51.512;5.494;2023-03-13T16:46:38;21.30;99.90
13808;DHT22;40769;51.512;5.494;2023-03-13T16:49:05;21.00;99.90
13808;DHT22;40769;51.512;5.494;2023-03-13T16:51:31;20.80;99.90
13808;DHT22;40769;51.512;5.494;2023-03-13T16:53:58;20.60;99.90
13808;DHT22;40769;51.512;5.494;2023-03-13T16:56:36;20.40;99.90
13808;DHT22;40769;51.512;5.494;2023-03-13T16:59:13;20.20;99.90
13808;DHT22;40769;51.512;5.494;2023-03-13T17:01:40;20.00;99.90
13808;DHT22;40769;51.512;5.494;2023-03-13T17:04:05;19.90;99.90
13808;DHT22;40769;51.512;5.494;2023-03-13T17:06:34;19.70;99.90
13808;DHT22;40769;51.512;5.494;2023-03-13T17:09:00;19.60;99.90
13808;DHT22;40769;51.512;5.494;2023-03-13T17:11:27;19.50;99.90
13808;DHT22;40769;51.512;5.494;2023-03-13T17:13:54;19.40;99.90
13808;DHT22;40769;51.512;5.494;2023-03-13T17:16:28;19.30;99.90
13808;DHT22;40769;51.512;5.494;2023-03-13T17:18:54;19.20;99.90
13808;DHT22;40769;51.512;5.494;2023-03-13T17:21:22;19.10;99.90
13808;DHT22;40769;51.512;5.494;2023-03-13T17:23:49;19.10;99.90
13808;DHT22;40769;51.512;5.494;2023-03-13T17:26:18;19.00;99.90
13808;DHT22;40769;51.512;5.494;2023-03-13T17:28:46;18.90;99.90
13808;DHT22;40769;51.512;5.494;2023-03-13T17:31:12;18.90;99.90